createdAt,value
2022-08-26T00:02:22.988Z,21.00
2022-08-26T00:04:52.260Z,21.00
2022-08-26T00:07:22.859Z,21.20
2022-08-26T00:09:54.461Z,21.40
2022-08-26T00:12:31.498Z,21.50
2022-08-26T00:15:05.150Z,21.40
2022-08-26T00:17:34.130Z,21.40
2022-08-26T00:20:02.718Z,21.30
2022-08-26T00:22:38.903Z,21.30
2022-08-26T00:25:10.049Z,21.40
2022-08-26T00:27:38.474Z,21.70
2022-08-26T00:30:10.884Z,21.90
2022-08-26T00:32:39.671Z,22.00
2022-08-26T00:35:13.578Z,22.20
2022-08-26T00:37:45.172Z,22.20
2022-08-26T00:40:18.772Z,22.20
2022-08-26T00:42:48.784Z,22.10
2022-08-26T00:45:17.753Z,22.10
2022-08-26T00:47:49.586Z,22.10
2022-08-26T00:50:24.848Z,22.10
2022-08-26T00:52:59.483Z,22.10
2022-08-26T00:55:34.638Z,22.10
2022-08-26T00:58:08.292Z,22.10
2022-08-26T01:00:41.445Z,22.10
2022-08-26T01:03:26.995Z,22.10
2022-08-26T01:06:00.908Z,22.10
2022-08-26T01:08:31.981Z,22.10
2022-08-26T01:11:02.529Z,22.10
2022-08-26T01:13:33.704Z,22.00
2022-08-26T01:16:05.666Z,22.10
2022-08-26T01:18:36.029Z,22.00
2022-08-26T01:21:14.915Z,22.00
2022-08-26T01:23:51.399Z,22.00
2022-08-26T01:26:35.507Z,22.00
2022-08-26T01:29:07.499Z,22.00
2022-08-26T01:31:42.129Z,22.00
2022-08-26T01:34:19.701Z,22.00
2022-08-26T01:36:51.507Z,22.00
2022-08-26T01:39:22.615Z,21.90
2022-08-26T01:41:55.136Z,21.90
2022-08-26T01:44:28.343Z,21.90
2022-08-26T01:47:00.144Z,21.90
2022-08-26T01:49:32.711Z,21.90
2022-08-26T01:52:06.047Z,21.80
2022-08-26T01:54:38.176Z,21.80
2022-08-26T01:57:08.117Z,21.80
2022-08-26T01:59:37.448Z,21.70
2022-08-26T02:02:06.392Z,21.70
2022-08-26T02:04:38.162Z,21.60
2022-08-26T02:07:10.627Z,21.60
2022-08-26T02:09:48.557Z,21.60
2022-08-26T02:12:20.988Z,21.50
2022-08-26T02:14:53.890Z,21.50
2022-08-26T02:17:27.531Z,21.50
2022-08-26T02:19:57.255Z,21.50
2022-08-26T02:22:26.886Z,21.40
2022-08-26T02:25:00.109Z,21.40
2022-08-26T02:27:32.357Z,21.40
2022-08-26T02:30:09.221Z,21.40
2022-08-26T02:32:40.230Z,21.30
2022-08-26T02:35:13.959Z,21.30
2022-08-26T02:37:54.251Z,21.20
2022-08-26T02:40:28.493Z,21.30
2022-08-26T02:42:57.161Z,21.30
2022-08-26T02:45:26.459Z,21.40
2022-08-26T02:47:56.977Z,21.40
2022-08-26T02:50:26.191Z,21.50
2022-08-26T02:52:56.015Z,21.50
2022-08-26T02:55:26.747Z,21.50
2022-08-26T02:57:55.444Z,21.50
2022-08-26T03:00:24.992Z,21.50
2022-08-26T03:02:55.472Z,21.50
2022-08-26T03:05:25.367Z,21.60
2022-08-26T03:07:54.433Z,21.50
2022-08-26T03:10:24.335Z,21.60
2022-08-26T03:18:42.324Z,21.50
2022-08-26T03:21:14.020Z,21.50
2022-08-26T03:23:44.120Z,21.50
2022-08-26T03:26:14.510Z,21.50
2022-08-26T03:28:57.087Z,21.50
2022-08-26T03:31:27.637Z,21.50
2022-08-26T03:33:59.722Z,21.60
2022-08-26T03:36:32.249Z,21.60
2022-08-26T03:39:04.065Z,21.60
2022-08-26T03:41:33.284Z,21.60
2022-08-26T03:44:02.919Z,21.60
2022-08-26T03:46:35.511Z,21.60
2022-08-26T03:49:07.188Z,21.70
2022-08-26T03:51:38.793Z,21.60
2022-08-26T03:54:09.107Z,21.60
2022-08-26T03:56:38.787Z,21.60
2022-08-26T03:59:09.244Z,21.50
2022-08-26T04:01:52.383Z,21.50
2022-08-26T04:04:24.428Z,21.50
2022-08-26T04:06:58.391Z,21.50
2022-08-26T04:09:28.091Z,21.60
2022-08-26T04:11:57.543Z,21.70
2022-08-26T04:14:29.220Z,21.60
2022-08-26T04:16:58.613Z,21.60
2022-08-26T04:19:28.781Z,21.60
2022-08-26T04:21:57.732Z,21.50
2022-08-26T04:24:29.418Z,21.50
2022-08-26T04:26:58.355Z,21.50
2022-08-26T04:29:28.755Z,21.50
2022-08-26T04:31:57.670Z,21.50
2022-08-26T04:34:29.558Z,21.50
2022-08-26T04:37:01.752Z,21.60
2022-08-26T04:39:30.669Z,21.50
2022-08-26T04:42:01.733Z,21.50
2022-08-26T04:44:32.425Z,21.50
2022-08-26T04:47:01.515Z,21.50
2022-08-26T04:49:35.126Z,21.60
2022-08-26T04:52:05.701Z,21.60
2022-08-26T04:54:34.613Z,21.60
2022-08-26T04:57:03.851Z,21.60
2022-08-26T04:59:38.465Z,21.60
2022-08-26T05:02:08.068Z,21.70
2022-08-26T05:04:40.822Z,21.70
2022-08-26T05:07:09.746Z,21.80
2022-08-26T05:09:38.431Z,21.80
2022-08-26T05:12:13.104Z,21.80
2022-08-26T05:14:42.381Z,21.80
2022-08-26T05:17:15.101Z,21.70
2022-08-26T05:19:45.922Z,21.70
2022-08-26T05:22:14.745Z,21.70
2022-08-26T05:24:43.564Z,21.80
2022-08-26T05:27:13.586Z,21.90
2022-08-26T05:29:43.129Z,22.00
2022-08-26T05:32:13.224Z,22.10
2022-08-26T05:34:42.885Z,22.00
2022-08-26T05:37:13.778Z,22.00
2022-08-26T05:39:51.401Z,21.90
2022-08-26T05:42:20.674Z,21.90
2022-08-26T05:44:56.049Z,21.90
2022-08-26T05:47:25.244Z,21.90
2022-08-26T05:49:55.627Z,21.80
2022-08-26T05:52:26.135Z,22.00
2022-08-26T05:54:55.795Z,22.00
2022-08-26T05:57:24.460Z,22.10
2022-08-26T05:59:53.400Z,22.00
2022-08-26T06:02:22.301Z,22.10
2022-08-26T06:04:51.950Z,22.20
2022-08-26T06:07:41.590Z,22.10
2022-08-26T06:10:31.477Z,22.10
2022-08-26T06:13:04.543Z,22.00
2022-08-26T06:15:43.539Z,22.00
2022-08-26T06:18:14.729Z,22.10
2022-08-26T06:20:57.654Z,22.00
2022-08-26T06:23:46.196Z,22.00
2022-08-26T06:26:23.777Z,22.10
2022-08-26T06:28:53.622Z,22.20
2022-08-26T06:31:23.173Z,22.20
2022-08-26T06:33:53.204Z,22.20
2022-08-26T06:36:25.587Z,22.20
2022-08-26T06:38:55.982Z,22.30
2022-08-26T06:41:26.374Z,22.20
2022-08-26T06:43:55.143Z,22.30
2022-08-26T06:46:24.158Z,22.30
2022-08-26T06:48:55.455Z,22.40
2022-08-26T06:51:27.222Z,22.50
2022-08-26T06:53:59.716Z,22.40
2022-08-26T06:56:35.605Z,22.40
2022-08-26T06:59:07.197Z,22.40
2022-08-26T07:01:43.000Z,22.50
2022-08-26T07:04:20.291Z,22.60
2022-08-26T07:06:54.902Z,22.60
2022-08-26T07:09:26.499Z,22.60
2022-08-26T07:11:57.875Z,22.70
2022-08-26T07:14:27.386Z,22.50
2022-08-26T07:16:56.641Z,22.50
2022-08-26T07:19:29.860Z,22.60
2022-08-26T07:22:02.244Z,22.60
2022-08-26T07:24:33.477Z,22.50
2022-08-26T07:27:07.441Z,22.40
2022-08-26T07:29:39.918Z,22.40
2022-08-26T07:32:09.942Z,22.50
2022-08-26T07:34:39.132Z,22.40
2022-08-26T07:37:08.808Z,22.40
2022-08-26T07:39:37.893Z,22.40
2022-08-26T07:42:15.073Z,22.40
2022-08-26T07:44:45.001Z,22.60
2022-08-26T07:47:25.587Z,22.70
2022-08-26T07:49:56.836Z,22.80
2022-08-26T07:52:27.196Z,22.70
2022-08-26T07:55:02.304Z,22.70
2022-08-26T07:57:39.993Z,22.60
2022-08-26T08:00:13.927Z,22.70
2022-08-26T08:02:45.179Z,22.70
2022-08-26T08:05:17.853Z,22.80
2022-08-26T08:07:46.814Z,22.80
2022-08-26T08:10:19.097Z,22.70
2022-08-26T08:12:52.877Z,22.50
2022-08-26T08:15:25.411Z,22.50
2022-08-26T08:17:55.624Z,22.70
2022-08-26T08:20:33.249Z,22.60
2022-08-26T08:23:07.091Z,22.70
2022-08-26T08:25:37.100Z,22.60
2022-08-26T08:28:07.893Z,22.50
2022-08-26T08:30:41.552Z,22.50
2022-08-26T08:33:11.349Z,22.80
2022-08-26T08:35:42.624Z,22.70
2022-08-26T08:38:11.978Z,22.60
2022-08-26T08:40:42.897Z,22.50
2022-08-26T08:43:15.254Z,22.40
2022-08-26T08:45:49.580Z,22.40
2022-08-26T08:48:27.962Z,22.40
2022-08-26T08:51:05.071Z,22.50
2022-08-26T08:53:39.545Z,22.40
2022-08-26T08:56:13.885Z,22.40
2022-08-26T08:58:56.788Z,22.50
2022-08-26T09:01:39.889Z,22.40
2022-08-26T09:04:21.412Z,22.50
2022-08-26T09:06:54.187Z,22.60
2022-08-26T09:09:25.666Z,22.60
2022-08-26T09:11:58.871Z,22.70
2022-08-26T09:14:29.329Z,22.70
2022-08-26T09:17:04.286Z,22.90
2022-08-26T09:19:41.520Z,23.10
2022-08-26T09:22:10.259Z,23.20
2022-08-26T09:24:48.395Z,23.40
2022-08-26T09:27:38.057Z,23.40
2022-08-26T09:30:11.473Z,23.50
2022-08-26T09:32:41.363Z,23.50
2022-08-26T09:35:12.265Z,23.60
2022-08-26T09:37:43.675Z,23.70
2022-08-26T09:40:22.658Z,23.70
2022-08-26T09:43:09.311Z,24.00
2022-08-26T09:45:40.562Z,24.10
2022-08-26T09:48:32.328Z,23.90
2022-08-26T09:51:08.200Z,24.00
2022-08-26T09:53:50.816Z,24.10
2022-08-26T09:56:27.723Z,24.30
2022-08-26T09:58:58.591Z,24.50
2022-08-26T10:01:38.220Z,24.40
2022-08-26T10:04:14.121Z,24.20
2022-08-26T10:06:55.583Z,23.80
2022-08-26T10:09:28.128Z,23.50
2022-08-26T10:12:01.257Z,23.30
2022-08-26T10:14:34.014Z,23.30
2022-08-26T10:17:13.047Z,23.40
2022-08-26T10:19:56.568Z,23.50
2022-08-26T10:22:31.111Z,23.50
2022-08-26T10:25:04.417Z,23.60
2022-08-26T10:27:51.000Z,23.70
2022-08-26T10:30:23.689Z,23.60
2022-08-26T10:32:58.057Z,23.60
2022-08-26T10:35:27.342Z,23.70
2022-08-26T10:37:59.509Z,23.60
2022-08-26T10:40:32.052Z,23.60
2022-08-26T10:43:10.898Z,23.70
2022-08-26T10:45:43.936Z,23.80
2022-08-26T10:48:19.028Z,24.00
2022-08-26T10:50:49.963Z,24.30
2022-08-26T10:53:26.502Z,24.30
2022-08-26T10:56:02.803Z,24.40
2022-08-26T10:58:52.505Z,24.60
2022-08-26T11:01:46.948Z,24.90
2022-08-26T11:04:37.668Z,25.20
2022-08-26T11:07:39.442Z,25.10
2022-08-26T11:10:12.769Z,25.20
2022-08-26T11:12:53.870Z,25.30
2022-08-26T11:16:09.631Z,25.40
2022-08-26T11:18:51.404Z,25.40
2022-08-26T11:22:05.319Z,25.30
2022-08-26T11:25:00.945Z,25.30
2022-08-26T11:28:03.821Z,25.30
2022-08-26T11:30:57.820Z,25.50
2022-08-26T11:34:00.810Z,25.30
2022-08-26T11:37:00.082Z,25.20
2022-08-26T11:39:33.392Z,25.30
2022-08-26T11:42:20.258Z,25.20
2022-08-26T11:44:50.103Z,25.50
2022-08-26T11:47:28.778Z,25.80
2022-08-26T11:50:10.218Z,26.00
2022-08-26T11:52:41.299Z,26.30
2022-08-26T11:55:12.477Z,26.20
2022-08-26T11:57:46.104Z,26.20
2022-08-26T12:00:22.704Z,26.30
2022-08-26T12:02:53.640Z,26.30
2022-08-26T12:05:29.584Z,26.30
2022-08-26T12:08:08.766Z,26.00
2022-08-26T12:10:39.040Z,25.70
2022-08-26T12:13:08.961Z,25.60
2022-08-26T12:15:37.740Z,25.70
2022-08-26T12:18:20.790Z,25.80
2022-08-26T12:20:59.506Z,25.50
2022-08-26T12:23:43.357Z,25.40
2022-08-26T12:26:20.448Z,25.80
2022-08-26T12:28:53.493Z,26.20
2022-08-26T12:31:25.257Z,26.10
2022-08-26T12:33:54.771Z,26.30
2022-08-26T12:36:31.723Z,26.20
2022-08-26T12:39:10.945Z,26.00
2022-08-26T12:41:50.136Z,25.80
2022-08-26T12:44:37.130Z,26.00
2022-08-26T12:47:10.025Z,26.00
2022-08-26T12:49:41.018Z,26.40
2022-08-26T12:52:30.318Z,26.70
2022-08-26T12:55:03.507Z,26.30
2022-08-26T12:57:36.575Z,26.10
2022-08-26T13:00:26.271Z,25.80
2022-08-26T13:02:58.907Z,25.90
2022-08-26T13:05:33.205Z,26.10
2022-08-26T13:08:16.997Z,25.90
2022-08-26T13:10:49.354Z,25.80
2022-08-26T13:13:18.358Z,25.70
2022-08-26T13:15:47.226Z,25.30
2022-08-26T13:18:16.890Z,25.00
2022-08-26T13:20:45.684Z,24.90
2022-08-26T13:23:14.873Z,24.90
2022-08-26T13:25:43.967Z,24.80
2022-08-26T13:28:14.323Z,24.80
2022-08-26T13:30:46.094Z,24.80
2022-08-26T13:33:16.967Z,24.60
2022-08-26T13:35:47.070Z,24.80
2022-08-26T13:38:29.023Z,24.80
2022-08-26T13:41:04.423Z,24.70
2022-08-26T13:43:34.604Z,24.70
2022-08-26T13:46:03.552Z,24.70
2022-08-26T13:48:34.266Z,24.50
2022-08-26T13:51:03.786Z,24.40
2022-08-26T13:53:37.446Z,24.50
2022-08-26T13:56:10.838Z,24.50
2022-08-26T13:58:41.395Z,24.50
2022-08-26T14:01:10.518Z,24.50
2022-08-26T14:03:39.975Z,24.60
2022-08-26T14:06:08.848Z,24.60
2022-08-26T14:08:38.033Z,24.40
2022-08-26T14:11:07.041Z,24.30
2022-08-26T14:13:36.486Z,24.10
2022-08-26T14:16:11.328Z,24.10
2022-08-26T14:18:47.288Z,24.20
2022-08-26T14:21:18.785Z,24.00
2022-08-26T14:23:47.395Z,23.90
2022-08-26T14:26:28.549Z,23.80
2022-08-26T14:28:58.245Z,23.60
2022-08-26T14:31:31.573Z,23.50
2022-08-26T14:34:09.615Z,23.40
2022-08-26T14:36:38.213Z,23.40
2022-08-26T14:39:10.132Z,23.40
2022-08-26T14:41:42.743Z,23.30
2022-08-26T14:44:14.798Z,23.40
2022-08-26T14:46:47.428Z,23.30
2022-08-26T14:49:19.283Z,23.30
2022-08-26T14:51:48.095Z,23.30
2022-08-26T14:54:18.269Z,23.40
2022-08-26T14:56:51.399Z,23.40
2022-08-26T14:59:24.060Z,23.80
2022-08-26T15:01:55.907Z,24.10
2022-08-26T15:04:25.873Z,24.50
2022-08-26T15:06:57.015Z,24.50
2022-08-26T15:09:26.391Z,24.30
2022-08-26T15:11:55.619Z,24.10
2022-08-26T15:14:26.013Z,24.00
2022-08-26T15:17:35.753Z,24.10
2022-08-26T15:22:58.225Z,24.00
2022-08-26T15:25:31.289Z,23.70
2022-08-26T15:27:59.848Z,23.70
2022-08-26T15:30:28.676Z,23.80
2022-08-26T15:32:58.974Z,23.90
2022-08-26T15:35:27.857Z,23.80
2022-08-26T15:38:01.621Z,23.90
2022-08-26T15:40:30.849Z,23.90
2022-08-26T15:43:17.847Z,23.60
2022-08-26T15:45:47.334Z,23.40
2022-08-26T15:48:17.797Z,23.40
2022-08-26T15:50:52.867Z,23.40
2022-08-26T15:53:22.709Z,23.30
2022-08-26T15:55:54.164Z,23.20
2022-08-26T15:58:24.371Z,23.30
2022-08-26T16:01:02.890Z,23.30
2022-08-26T16:03:33.441Z,23.40
2022-08-26T16:06:02.901Z,23.30
2022-08-26T16:08:36.470Z,23.20
2022-08-26T16:11:06.074Z,23.20
2022-08-26T16:13:39.944Z,23.20
2022-08-26T16:16:10.269Z,23.20
2022-08-26T16:18:40.787Z,23.20
2022-08-26T16:21:13.296Z,23.30
2022-08-26T16:23:44.296Z,23.20
2022-08-26T16:26:16.492Z,23.20
2022-08-26T16:28:45.344Z,23.20
2022-08-26T16:31:19.388Z,23.20
2022-08-26T16:33:49.625Z,23.20
2022-08-26T16:36:18.644Z,23.10
2022-08-26T16:38:50.207Z,23.20
2022-08-26T16:41:19.413Z,23.30
2022-08-26T16:43:48.308Z,23.20
2022-08-26T16:46:17.500Z,23.20
2022-08-26T16:48:46.853Z,23.20
2022-08-26T16:51:19.139Z,23.20
2022-08-26T16:53:48.009Z,23.20
2022-08-26T16:56:18.099Z,23.10
2022-08-26T16:58:48.277Z,23.10
2022-08-26T17:01:17.398Z,23.00
2022-08-26T17:03:49.226Z,22.90
2022-08-26T17:06:19.814Z,22.90
2022-08-26T17:08:48.702Z,22.80
2022-08-26T17:11:17.527Z,22.90
2022-08-26T17:13:46.191Z,22.90
2022-08-26T17:16:15.193Z,22.90
2022-08-26T17:18:44.115Z,22.90
2022-08-26T17:21:15.176Z,22.90
2022-08-26T17:23:46.032Z,22.80
2022-08-26T17:26:14.742Z,22.80
2022-08-26T17:28:43.463Z,22.60
2022-08-26T17:31:14.306Z,22.50
2022-08-26T17:33:42.991Z,22.50
2022-08-26T17:36:11.958Z,22.50
2022-08-26T17:38:41.252Z,22.40
2022-08-26T17:41:13.036Z,22.20
2022-08-26T17:43:41.921Z,22.20
2022-08-26T17:46:13.033Z,22.10
2022-08-26T17:48:42.448Z,22.10
2022-08-26T17:51:12.674Z,22.00
2022-08-26T17:53:41.401Z,22.00
2022-08-26T17:56:14.877Z,22.00
2022-08-26T17:58:51.494Z,21.90
2022-08-26T18:01:21.140Z,21.90
2022-08-26T18:03:50.255Z,21.90
2022-08-26T18:06:19.408Z,21.90
2022-08-26T18:08:48.360Z,22.00
2022-08-26T18:11:20.480Z,22.00
2022-08-26T18:13:49.139Z,22.10
2022-08-26T18:16:19.879Z,22.10
2022-08-26T18:18:52.013Z,22.10
2022-08-26T18:21:23.755Z,22.10
2022-08-26T18:23:54.326Z,22.20
2022-08-26T18:26:29.050Z,22.10
2022-08-26T18:28:57.831Z,22.20
2022-08-26T18:31:26.997Z,22.20
2022-08-26T18:33:55.712Z,22.30
2022-08-26T18:36:26.472Z,22.20
2022-08-26T18:38:56.042Z,22.20
2022-08-26T18:41:28.802Z,22.20
2022-08-26T18:43:59.234Z,22.10
2022-08-26T18:46:29.732Z,22.10
2022-08-26T18:49:02.462Z,22.10
2022-08-26T18:51:33.714Z,22.10
2022-08-26T18:54:09.621Z,22.00
2022-08-26T18:56:40.645Z,22.00
2022-08-26T18:59:09.966Z,22.00
2022-08-26T19:01:42.429Z,21.90
2022-08-26T19:04:15.613Z,21.80
2022-08-26T19:06:46.637Z,21.70
2022-08-26T19:09:17.323Z,21.70
2022-08-26T19:11:49.770Z,21.70
2022-08-26T19:14:22.276Z,21.60
2022-08-26T19:16:52.814Z,21.60
2022-08-26T19:19:25.293Z,21.60
2022-08-26T19:21:57.942Z,21.60
2022-08-26T19:24:28.150Z,21.60
2022-08-26T19:27:00.765Z,21.50
2022-08-26T19:29:32.044Z,21.40
2022-08-26T19:32:01.681Z,21.40
2022-08-26T19:34:30.584Z,21.40
2022-08-26T19:36:59.572Z,21.30
2022-08-26T19:39:28.615Z,21.30
2022-08-26T19:42:00.456Z,21.30
2022-08-26T19:44:46.508Z,21.30
2022-08-26T19:47:15.323Z,21.20
2022-08-26T19:49:43.956Z,21.20
2022-08-26T19:52:13.302Z,21.20
2022-08-26T19:54:42.265Z,21.00
2022-08-26T19:57:12.939Z,21.10
2022-08-26T19:59:42.322Z,21.10
2022-08-26T20:02:11.500Z,21.20
2022-08-26T20:04:41.876Z,21.10
2022-08-26T20:07:12.895Z,21.00
2022-08-26T20:09:44.053Z,21.00
2022-08-26T20:12:15.494Z,21.00
2022-08-26T20:14:44.340Z,20.90
2022-08-26T20:17:13.626Z,20.80
2022-08-26T20:19:59.695Z,20.80
2022-08-26T20:22:28.338Z,20.80
2022-08-26T20:24:57.066Z,20.80
2022-08-26T20:27:37.711Z,20.90
2022-08-26T20:30:09.183Z,21.00
2022-08-26T20:32:38.350Z,20.90
2022-08-26T20:35:09.499Z,20.90
2022-08-26T20:37:39.243Z,20.80
2022-08-26T20:40:09.523Z,20.80
2022-08-26T20:42:39.863Z,20.80
2022-08-26T20:45:10.122Z,20.70
2022-08-26T20:47:39.063Z,20.70
2022-08-26T20:50:09.505Z,20.80
2022-08-26T20:52:38.194Z,20.90
2022-08-26T20:55:07.790Z,21.00
2022-08-26T20:57:37.577Z,21.10
2022-08-26T21:00:09.849Z,21.10
2022-08-26T21:02:38.460Z,21.10
2022-08-26T21:05:08.075Z,21.10
2022-08-26T21:07:36.698Z,21.10
2022-08-26T21:10:05.425Z,21.10
2022-08-26T21:12:34.017Z,21.00
2022-08-26T21:15:02.587Z,20.90
2022-08-26T21:17:32.924Z,20.90
2022-08-26T21:20:01.625Z,20.90
2022-08-26T21:22:31.197Z,20.90
2022-08-26T21:25:00.165Z,20.80
2022-08-26T21:27:28.821Z,20.90
2022-08-26T21:29:57.553Z,20.90
2022-08-26T21:32:26.161Z,20.80
2022-08-26T21:34:58.673Z,20.80
2022-08-26T21:37:29.496Z,20.90
2022-08-26T21:39:59.890Z,21.00
2022-08-26T21:42:29.626Z,21.00
2022-08-26T21:44:58.529Z,20.90
2022-08-26T21:47:27.747Z,20.90
2022-08-26T21:49:58.064Z,20.80
2022-08-26T21:52:26.888Z,20.80
2022-08-26T21:54:59.836Z,20.70
2022-08-26T21:57:29.941Z,20.50
2022-08-26T21:59:59.357Z,20.20
2022-08-26T22:02:28.314Z,20.20
2022-08-26T22:04:58.469Z,20.10
2022-08-26T22:07:27.147Z,20.10
2022-08-26T22:09:56.491Z,20.00
2022-08-26T22:12:28.107Z,20.00
2022-08-26T22:14:56.773Z,20.10
2022-08-26T22:17:26.610Z,20.20
2022-08-26T22:19:55.405Z,20.10
2022-08-26T22:22:28.726Z,20.10
2022-08-26T22:24:57.463Z,20.20
2022-08-26T22:27:26.520Z,20.20
2022-08-26T22:29:55.447Z,20.20
2022-08-26T22:32:24.064Z,20.30
2022-08-26T22:34:52.725Z,20.20
2022-08-26T22:37:21.619Z,20.10
2022-08-26T22:39:52.708Z,20.10
2022-08-26T22:42:21.659Z,20.00
2022-08-26T22:44:50.324Z,19.80
2022-08-26T22:47:19.109Z,19.70
2022-08-26T22:49:48.328Z,19.50
2022-08-26T22:52:17.314Z,19.40
2022-08-26T22:54:46.831Z,19.20
2022-08-26T22:57:17.231Z,19.20
2022-08-26T22:59:46.682Z,19.20
2022-08-26T23:02:15.862Z,19.20
2022-08-26T23:04:44.347Z,19.30
2022-08-26T23:07:14.179Z,19.30
2022-08-26T23:09:43.304Z,19.30
2022-08-26T23:12:12.651Z,19.20
2022-08-26T23:14:44.395Z,19.20
2022-08-26T23:17:14.506Z,19.10
2022-08-26T23:19:43.522Z,19.20
2022-08-26T23:22:12.647Z,19.20
2022-08-26T23:24:41.443Z,19.10
2022-08-26T23:27:10.405Z,19.00
2022-08-26T23:29:39.897Z,18.90
2022-08-26T23:32:10.354Z,18.80
2022-08-26T23:34:56.101Z,18.70
2022-08-26T23:37:24.788Z,18.60
2022-08-26T23:39:55.685Z,18.60
2022-08-26T23:42:24.341Z,18.50
2022-08-26T23:44:56.870Z,18.40
2022-08-26T23:47:27.621Z,18.50
2022-08-26T23:49:56.327Z,18.40
2022-08-26T23:52:47.814Z,18.40
2022-08-26T23:55:16.888Z,18.30
2022-08-26T23:57:45.506Z,18.30
